Aeroporto :
LOGIN :

Iscrizione | Disclaimer

   EN    FR    IT 

 










Sommario :    VFR   VFR Marginale   IFR   IFR Intensivo   IFR Molto Intensivo
Visibilità : 
Base nubi : 
>= 8 km
>= 3000ft
5 / 8 km
1000 / 3000 ft
1500m / 5 km
500 / 1000 ft
800 / 1500m
200 / 500 ft
< 800m
< 200 ft
Simboli :   Temporali  Nebbia  Neve Forte  Precipitazioni Forti  Vento > 20 kt
SIGMETs :   Varie  Temporali  Ghiacco  Turbolenza  Onda orograficha  Ceneri Vulcaniche






- Altitudine del aeroporto : 330 ft
- Codice IATA : LVA


LFOV - Laval-Entrammes

ULTIMO METAR :
  • 211100Z AUTO 31010KT 280V350 9999 BKN017 OVC038 20/16 Q1013

METARs OBSOLETI :
  • 211030Z AUTO 32010KT 280V350 9999 SCT012 BKN019 BKN027 20/16 Q1013
  • 211000Z AUTO 31009KT 270V330 9999 FEW020 BKN026 BKN031 21/16 Q1012
  • 210930Z AUTO 31008KT 9999 OVC018 20/16 Q1012
  • 210900Z AUTO 32009KT 280V360 9999 OVC015 20/16 Q1012
  • 210830Z AUTO 31006KT 270V350 9999 OVC013 20/17 Q1012
  • 210800Z AUTO 33005KT 290V020 9999 OVC009 19/17 Q1011
  • 210730Z AUTO 34007KT 310V010 9999 OVC006 18/16 Q1011
  • 210700Z AUTO 33007KT 300V010 9999 OVC005 17/16 Q1011
  • 210630Z AUTO 32006KT 300V360 9999 BKN005 OVC056 17/16 Q1011

TAF N/A



MetMap, La meteo Aeronautica in un colpo d'occhio ! - Copyright ORBIFLY Dicembre 2007 - Disclaimer

ORBIFLY MET'MAP TEAM :

Programmazione e sviluppo : Alexandra Zaïnal
Concezione : Baudouin d'Aumeries
Supporto tecnico e logistico : Manuel Goepfert
Aiuto : Marc-Olivier Méhu
Aiuto per la traduzione : Arnaldo La Scala




FONTI E CREDITI :

   NOAA